Wetterdaten: Woche 07.08.17 - 13.08.17 (KW32)
Datum Zeit Temperatur Luftfeuchte Luftdruck Niederschlag Windrichtung Sonnenschein Solar Wind
07.08.2017 00:00 13,3 C 96 % 1019,8 hPa 0,0 l/m N 0,00 h 0 W/m 0,0 km/h (0 Bft)
07.08.2017 01:00 12,8 C 97 % 1019,5 hPa 0,0 l/m N 0,00 h 0 W/m 0,0 km/h (0 Bft)
07.08.2017 02:00 12,3 C 97 % 1019,2 hPa 0,0 l/m N 0,00 h 0 W/m 0,0 km/h (0 Bft)
07.08.2017 03:00 11,9 C 97 % 1018,7 hPa 0,0 l/m N 0,00 h 0 W/m 0,0 km/h (0 Bft)
07.08.2017 04:00 11,6 C 98 % 1018,3 hPa 0,0 l/m N 0,00 h 0 W/m 0,0 km/h (0 Bft)
07.08.2017 05:00 11,2 C 98 % 1018,0 hPa 0,0 l/m N 0,00 h 0 W/m 0,0 km/h (0 Bft)
07.08.2017 06:00 11,0 C 98 % 1017,6 hPa 0,0 l/m O-SO 0,50 h 31 W/m 1,9 km/h (1 Bft)
07.08.2017 07:00 12,3 C 97 % 1017,5 hPa 0,2 l/m O-SO 1,00 h 168 W/m 8,7 km/h (2 Bft)
07.08.2017 08:00 14,5 C 91 % 1017,3 hPa 0,0 l/m O 1,00 h 343 W/m 10,6 km/h (2 Bft)
07.08.2017 09:00 17,3 C 77 % 1016,8 hPa 0,0 l/m O 0,92 h 461 W/m 16,8 km/h (3 Bft)
07.08.2017 10:00 18,9 C 69 % 1016,4 hPa 0,0 l/m O 0,92 h 605 W/m 21,7 km/h (4 Bft)
07.08.2017 11:00 20,6 C 64 % 1015,9 hPa 0,0 l/m O 1,00 h 761 W/m 18,6 km/h (3 Bft)
07.08.2017 12:00 21,7 C 61 % 1015,4 hPa 0,0 l/m O-SO 1,00 h 826 W/m 20,8 km/h (4 Bft)
07.08.2017 13:00 22,7 C 57 % 1014,9 hPa 0,0 l/m O 1,00 h 847 W/m 19,4 km/h (3 Bft)
07.08.2017 14:00 23,7 C 56 % 1014,5 hPa 0,0 l/m NO 1,00 h 814 W/m 17,0 km/h (3 Bft)
07.08.2017 15:00 24,4 C 55 % 1014,0 hPa 0,0 l/m O-NO 1,00 h 735 W/m 17,2 km/h (3 Bft)
07.08.2017 16:00 24,8 C 53 % 1013,4 hPa 0,0 l/m O 1,00 h 614 W/m 16,6 km/h (3 Bft)
07.08.2017 17:00 24,9 C 53 % 1013,0 hPa 0,0 l/m O-NO 1,00 h 467 W/m 16,5 km/h (3 Bft)
07.08.2017 18:00 24,3 C 56 % 1012,7 hPa 0,0 l/m O-NO 1,00 h 291 W/m 16,1 km/h (3 Bft)
07.08.2017 19:00 23,2 C 60 % 1012,2 hPa 0,0 l/m O 0,50 h 109 W/m 13,6 km/h (3 Bft)
07.08.2017 20:00 21,2 C 68 % 1012,2 hPa 0,0 l/m O-NO 0,08 h 15 W/m 7,9 km/h (2 Bft)
07.08.2017 21:00 18,8 C 77 % 1012,2 hPa 0,0 l/m N 0,00 h 0 W/m 1,7 km/h (1 Bft)
07.08.2017 22:00 17,5 C 82 % 1011,9 hPa 0,0 l/m O-NO 0,00 h 0 W/m 2,7 km/h (1 Bft)
07.08.2017 23:00 16,0 C 88 % 1011,7 hPa 0,0 l/m N 0,00 h 0 W/m 0,9 km/h (0 Bft)
08.08.2017 00:00 15,2 C 90 % 1011,3 hPa 0,0 l/m O-NO 0,00 h 0 W/m 1,1 km/h (0 Bft)
08.08.2017 01:00 14,7 C 93 % 1010,9 hPa 0,0 l/m O-NO 0,00 h 0 W/m 1,1 km/h (0 Bft)
08.08.2017 02:00 14,2 C 93 % 1010,3 hPa 0,0 l/m N 0,00 h 0 W/m 0,9 km/h (0 Bft)
08.08.2017 03:00 13,6 C 94 % 1009,9 hPa 0,0 l/m N 0,00 h 0 W/m 0,3 km/h (0 Bft)
08.08.2017 04:00 13,0 C 95 % 1009,6 hPa 0,0 l/m N 0,00 h 0 W/m 0,0 km/h (0 Bft)
08.08.2017 05:00 12,8 C 96 % 1008,9 hPa 0,0 l/m N 0,00 h 0 W/m 0,3 km/h (0 Bft)
08.08.2017 06:00 12,7 C 96 % 1008,7 hPa 0,0 l/m O-NO 0,33 h 26 W/m 1,1 km/h (0 Bft)
08.08.2017 07:00 13,8 C 95 % 1008,3 hPa 0,0 l/m O-NO 0,50 h 137 W/m 0,4 km/h (0 Bft)
08.08.2017 08:00 15,3 C 92 % 1007,9 hPa 0,0 l/m O-NO 0,58 h 221 W/m 2,5 km/h (1 Bft)
08.08.2017 09:00 18,1 C 87 % 1007,6 hPa 0,0 l/m N 0,92 h 442 W/m 2,9 km/h (1 Bft)
08.08.2017 10:00 20,4 C 82 % 1008,0 hPa 0,0 l/m W-NW 0,67 h 404 W/m 11,9 km/h (2 Bft)
08.08.2017 11:00 22,1 C 74 % 1008,5 hPa 0,0 l/m W 0,75 h 581 W/m 11,1 km/h (2 Bft)
08.08.2017 12:00 22,2 C 72 % 1008,9 hPa 0,0 l/m W 0,08 h 344 W/m 14,9 km/h (3 Bft)
08.08.2017 13:00 23,0 C 65 % 1009,0 hPa 0,0 l/m W-SW 0,50 h 508 W/m 15,8 km/h (3 Bft)
08.08.2017 14:00 19,9 C 78 % 1010,2 hPa 0,0 l/m W-SW 0,00 h 113 W/m 19,7 km/h (3 Bft)
08.08.2017 15:00 18,6 C 85 % 1010,7 hPa 0,0 l/m SW 0,00 h 95 W/m 12,6 km/h (3 Bft)
08.08.2017 16:00 18,1 C 88 % 1011,3 hPa 0,2 l/m W-SW 0,00 h 85 W/m 14,1 km/h (3 Bft)
08.08.2017 17:00 17,0 C 90 % 1011,1 hPa 0,8 l/m W-SW 0,00 h 130 W/m 8,1 km/h (2 Bft)
08.08.2017 18:00 16,1 C 93 % 1011,5 hPa 1,8 l/m SW 0,00 h 26 W/m 9,0 km/h (2 Bft)
08.08.2017 19:00 15,0 C 95 % 1011,8 hPa 2,8 l/m SW 0,00 h 7 W/m 3,0 km/h (1 Bft)
08.08.2017 20:00 14,7 C 96 % 1012,4 hPa 1,2 l/m S-SW 0,08 h 8 W/m 2,8 km/h (1 Bft)
08.08.2017 21:00 14,6 C 97 % 1013,0 hPa 0,2 l/m S-SW 0,00 h 0 W/m 2,0 km/h (1 Bft)
08.08.2017 22:00 14,6 C 98 % 1013,5 hPa 0,2 l/m S-SW 0,00 h 0 W/m 2,9 km/h (1 Bft)
08.08.2017 23:00 14,4 C 98 % 1013,3 hPa 0,0 l/m N 0,00 h 0 W/m 0,0 km/h (0 Bft)
09.08.2017 00:00 14,4 C 98 % 1013,7 hPa 0,0 l/m N 0,00 h 0 W/m 0,5 km/h (0 Bft)
09.08.2017 01:00 14,3 C 98 % 1013,6 hPa 1,0 l/m SW 0,00 h 0 W/m 2,8 km/h (1 Bft)
09.08.2017 02:00 14,4 C 98 % 1014,4 hPa 1,6 l/m SW 0,00 h 0 W/m 3,0 km/h (1 Bft)
09.08.2017 03:00 14,5 C 99 % 1014,3 hPa 0,8 l/m SW 0,00 h 0 W/m 2,4 km/h (1 Bft)
09.08.2017 04:00 14,4 C 99 % 1014,3 hPa 0,4 l/m S-SW 0,00 h 0 W/m 6,3 km/h (2 Bft)
09.08.2017 05:00 13,8 C 99 % 1014,4 hPa 0,0 l/m S-SW 0,00 h 0 W/m 6,6 km/h (2 Bft)
09.08.2017 06:00 13,0 C 99 % 1014,3 hPa 0,2 l/m N 0,00 h 14 W/m 0,4 km/h (0 Bft)
09.08.2017 07:00 13,3 C 99 % 1014,3 hPa 0,0 l/m N 0,00 h 68 W/m 0,1 km/h (0 Bft)
09.08.2017 08:00 14,4 C 99 % 1014,5 hPa 0,0 l/m N 0,17 h 178 W/m 0,0 km/h (0 Bft)
09.08.2017 09:00 15,8 C 96 % 1014,5 hPa 0,0 l/m N 0,42 h 287 W/m 0,4 km/h (0 Bft)
09.08.2017 10:00 17,4 C 89 % 1014,3 hPa 0,0 l/m S-SW 0,58 h 514 W/m 2,7 km/h (1 Bft)
09.08.2017 11:00 18,9 C 78 % 1013,7 hPa 0,0 l/m O 0,58 h 545 W/m 9,9 km/h (2 Bft)
09.08.2017 12:00 19,8 C 72 % 1013,4 hPa 0,0 l/m O-NO 0,83 h 573 W/m 13,4 km/h (3 Bft)
09.08.2017 13:00 20,6 C 70 % 1013,2 hPa 0,0 l/m O-NO 0,33 h 437 W/m 13,4 km/h (3 Bft)
09.08.2017 14:00 20,0 C 71 % 1013,1 hPa 0,0 l/m NO 0,00 h 204 W/m 13,2 km/h (3 Bft)
09.08.2017 15:00 19,6 C 76 % 1013,0 hPa 0,0 l/m N-NO 0,00 h 191 W/m 11,0 km/h (2 Bft)
09.08.2017 16:00 19,7 C 76 % 1012,8 hPa 0,0 l/m N-NO 0,00 h 174 W/m 11,3 km/h (2 Bft)
09.08.2017 17:00 19,3 C 79 % 1013,0 hPa 0,0 l/m N-NO 0,00 h 50 W/m 4,4 km/h (1 Bft)
09.08.2017 18:00 18,8 C 83 % 1013,1 hPa 0,0 l/m N-NO 0,00 h 56 W/m 2,0 km/h (1 Bft)
09.08.2017 19:00 18,9 C 82 % 1012,8 hPa 0,0 l/m N-NO 0,00 h 33 W/m 2,4 km/h (1 Bft)
09.08.2017 20:00 18,3 C 85 % 1012,9 hPa 0,0 l/m N-NO 0,00 h 9 W/m 2,1 km/h (1 Bft)
09.08.2017 21:00 17,8 C 86 % 1013,6 hPa 0,0 l/m N 0,00 h 0 W/m 0,8 km/h (0 Bft)
09.08.2017 22:00 17,3 C 89 % 1013,3 hPa 0,0 l/m N 0,00 h 0 W/m 0,1 km/h (0 Bft)
09.08.2017 23:00 16,1 C 94 % 1014,2 hPa 14,8 l/m W-NW 0,00 h 0 W/m 11,7 km/h (2 Bft)
10.08.2017 00:00 15,5 C 97 % 1014,4 hPa 0,0 l/m W-NW 0,00 h 0 W/m 6,8 km/h (2 Bft)
10.08.2017 01:00 15,1 C 97 % 1014,5 hPa 0,0 l/m NW 0,00 h 0 W/m 11,9 km/h (2 Bft)
10.08.2017 02:00 14,5 C 98 % 1014,8 hPa 0,0 l/m N-NW 0,00 h 0 W/m 8,9 km/h (2 Bft)
10.08.2017 03:00 14,3 C 98 % 1015,3 hPa 0,0 l/m NW 0,00 h 0 W/m 4,3 km/h (1 Bft)
10.08.2017 04:00 14,3 C 98 % 1015,2 hPa 0,0 l/m N 0,00 h 0 W/m 0,3 km/h (0 Bft)
10.08.2017 05:00 14,3 C 98 % 1015,0 hPa 0,0 l/m N 0,00 h 0 W/m 0,0 km/h (0 Bft)
10.08.2017 06:00 14,3 C 98 % 1014,8 hPa 0,0 l/m N 0,00 h 11 W/m 0,1 km/h (0 Bft)
10.08.2017 07:00 14,3 C 98 % 1014,6 hPa 0,0 l/m N 0,00 h 40 W/m 3,2 km/h (1 Bft)
10.08.2017 08:00 14,4 C 97 % 1014,5 hPa 0,0 l/m NW 0,00 h 41 W/m 6,2 km/h (2 Bft)
10.08.2017 09:00 14,5 C 97 % 1014,7 hPa 0,0 l/m N-NW 0,00 h 68 W/m 8,0 km/h (2 Bft)
10.08.2017 10:00 14,1 C 96 % 1015,1 hPa 0,0 l/m N-NW 0,00 h 63 W/m 11,7 km/h (2 Bft)
10.08.2017 11:00 13,7 C 96 % 1015,4 hPa 0,8 l/m N-NW 0,00 h 64 W/m 11,5 km/h (2 Bft)
10.08.2017 12:00 12,6 C 97 % 1015,5 hPa 0,8 l/m NW 0,00 h 155 W/m 21,7 km/h (4 Bft)
10.08.2017 13:00 11,6 C 97 % 1016,3 hPa 0,4 l/m W-NW 0,00 h 138 W/m 24,3 km/h (4 Bft)
10.08.2017 14:00 11,0 C 97 % 1017,1 hPa 0,2 l/m W-NW 0,00 h 106 W/m 20,3 km/h (4 Bft)
10.08.2017 15:00 10,8 C 97 % 1017,3 hPa 0,2 l/m W-NW 0,00 h 85 W/m 12,3 km/h (3 Bft)
10.08.2017 16:00 11,0 C 96 % 1017,4 hPa 0,2 l/m W 0,00 h 44 W/m 2,3 km/h (1 Bft)
10.08.2017 17:00 11,2 C 97 % 1017,4 hPa 1,2 l/m SW 0,00 h 57 W/m 7,0 km/h (2 Bft)
10.08.2017 18:00 11,2 C 97 % 1017,5 hPa 0,8 l/m W-SW 0,00 h 61 W/m 8,2 km/h (2 Bft)
10.08.2017 19:00 11,1 C 97 % 1017,8 hPa 0,2 l/m W-SW 0,00 h 28 W/m 7,4 km/h (2 Bft)
10.08.2017 20:00 10,9 C 98 % 1017,4 hPa 0,0 l/m N 0,00 h 10 W/m 1,2 km/h (1 Bft)
10.08.2017 21:00 10,8 C 98 % 1017,3 hPa 0,0 l/m N 0,00 h 0 W/m 0,0 km/h (0 Bft)
10.08.2017 22:00 10,8 C 98 % 1017,0 hPa 0,0 l/m N 0,00 h 0 W/m 0,0 km/h (0 Bft)
10.08.2017 23:00 10,4 C 98 % 1016,9 hPa 0,0 l/m N 0,00 h 0 W/m 0,0 km/h (0 Bft)
11.08.2017 00:00 10,2 C 98 % 1017,2 hPa 0,0 l/m N 0,00 h 0 W/m 0,0 km/h (0 Bft)
11.08.2017 01:00 10,3 C 98 % 1017,0 hPa 0,0 l/m N 0,00 h 0 W/m 0,0 km/h (0 Bft)
11.08.2017 02:00 10,4 C 99 % 1016,5 hPa 0,0 l/m N 0,00 h 0 W/m 0,0 km/h (0 Bft)
11.08.2017 03:00 10,3 C 99 % 1016,0 hPa 0,0 l/m N 0,00 h 0 W/m 0,0 km/h (0 Bft)
11.08.2017 04:00 10,4 C 99 % 1015,9 hPa 0,0 l/m N 0,00 h 0 W/m 0,0 km/h (0 Bft)
11.08.2017 05:00 10,3 C 99 % 1015,2 hPa 0,0 l/m N 0,00 h 0 W/m 0,0 km/h (0 Bft)
11.08.2017 06:00 10,5 C 99 % 1014,9 hPa 0,0 l/m N 0,00 h 9 W/m 0,0 km/h (0 Bft)
11.08.2017 07:00 10,7 C 99 % 1015,2 hPa 0,0 l/m N 0,00 h 32 W/m 0,0 km/h (0 Bft)
11.08.2017 08:00 11,0 C 99 % 1014,6 hPa 0,0 l/m N 0,00 h 110 W/m 0,5 km/h (0 Bft)
11.08.2017 09:00 12,3 C 96 % 1014,5 hPa 0,0 l/m N 0,00 h 211 W/m 0,8 km/h (0 Bft)
11.08.2017 10:00 13,1 C 91 % 1014,7 hPa 0,0 l/m N 0,00 h 219 W/m 0,0 km/h (0 Bft)
11.08.2017 11:00 13,5 C 87 % 1014,9 hPa 0,0 l/m NW 0,00 h 255 W/m 1,7 km/h (1 Bft)
11.08.2017 12:00 14,3 C 84 % 1014,8 hPa 0,0 l/m W-NW 0,17 h 375 W/m 2,4 km/h (1 Bft)
11.08.2017 13:00 14,3 C 85 % 1014,5 hPa 0,0 l/m W-NW 0,00 h 164 W/m 2,0 km/h (1 Bft)
11.08.2017 14:00 13,8 C 90 % 1014,7 hPa 0,0 l/m SW 0,00 h 117 W/m 8,1 km/h (2 Bft)
11.08.2017 15:00 13,0 C 95 % 1015,2 hPa 2,2 l/m SW 0,00 h 61 W/m 11,3 km/h (2 Bft)
11.08.2017 16:00 12,4 C 97 % 1015,3 hPa 0,8 l/m SW 0,00 h 57 W/m 9,1 km/h (2 Bft)
11.08.2017 17:00 12,7 C 97 % 1015,3 hPa 0,0 l/m SW 0,00 h 52 W/m 6,4 km/h (2 Bft)
11.08.2017 18:00 12,9 C 97 % 1015,5 hPa 0,4 l/m W-SW 0,00 h 37 W/m 3,5 km/h (1 Bft)
11.08.2017 19:00 12,6 C 97 % 1015,8 hPa 2,2 l/m W-SW 0,00 h 15 W/m 4,8 km/h (1 Bft)
11.08.2017 20:00 12,2 C 98 % 1016,2 hPa 0,0 l/m W-SW 0,00 h 9 W/m 13,4 km/h (3 Bft)
11.08.2017 21:00 12,1 C 98 % 1016,6 hPa 0,0 l/m W-SW 0,00 h 0 W/m 9,5 km/h (2 Bft)
11.08.2017 22:00 11,9 C 98 % 1016,8 hPa 0,0 l/m W-SW 0,00 h 0 W/m 9,0 km/h (2 Bft)
11.08.2017 23:00 11,9 C 98 % 1016,9 hPa 0,2 l/m W-SW 0,00 h 0 W/m 7,9 km/h (2 Bft)
12.08.2017 00:00 11,9 C 98 % 1017,0 hPa 0,2 l/m W-SW 0,00 h 0 W/m 9,5 km/h (2 Bft)
12.08.2017 01:00 11,9 C 98 % 1016,9 hPa 0,2 l/m SW 0,00 h 0 W/m 9,8 km/h (2 Bft)
12.08.2017 02:00 11,8 C 98 % 1017,0 hPa 0,0 l/m W-SW 0,00 h 0 W/m 9,1 km/h (2 Bft)
12.08.2017 03:00 11,8 C 98 % 1017,1 hPa 0,2 l/m W-SW 0,00 h 0 W/m 8,9 km/h (2 Bft)
12.08.2017 04:00 11,7 C 98 % 1017,2 hPa 0,2 l/m W-SW 0,00 h 0 W/m 8,3 km/h (2 Bft)
12.08.2017 05:00 11,6 C 98 % 1017,0 hPa 0,2 l/m SW 0,00 h 0 W/m 10,7 km/h (2 Bft)
12.08.2017 06:00 11,5 C 98 % 1017,0 hPa 0,0 l/m SW 0,17 h 18 W/m 11,0 km/h (2 Bft)
12.08.2017 07:00 11,7 C 98 % 1017,2 hPa 0,0 l/m W-SW 0,00 h 55 W/m 10,6 km/h (2 Bft)
12.08.2017 08:00 12,1 C 98 % 1017,8 hPa 0,0 l/m W-SW 0,00 h 128 W/m 15,8 km/h (3 Bft)
12.08.2017 09:00 12,2 C 98 % 1018,4 hPa 1,0 l/m W-SW 0,00 h 81 W/m 15,7 km/h (3 Bft)
12.08.2017 10:00 12,5 C 98 % 1018,8 hPa 0,0 l/m W-SW 0,00 h 188 W/m 16,9 km/h (3 Bft)
12.08.2017 11:00 13,9 C 96 % 1018,9 hPa 0,0 l/m W-SW 0,33 h 383 W/m 17,8 km/h (3 Bft)
12.08.2017 12:00 15,0 C 91 % 1018,9 hPa 0,0 l/m W-SW 0,42 h 480 W/m 18,9 km/h (3 Bft)
12.08.2017 13:00 15,9 C 85 % 1019,0 hPa 0,0 l/m W-SW 0,42 h 486 W/m 20,0 km/h (4 Bft)
12.08.2017 14:00 16,2 C 83 % 1019,1 hPa 0,0 l/m W 0,00 h 337 W/m 16,1 km/h (3 Bft)
12.08.2017 15:00 17,0 C 80 % 1019,0 hPa 0,0 l/m W 0,67 h 433 W/m 16,8 km/h (3 Bft)
12.08.2017 16:00 17,5 C 77 % 1018,7 hPa 0,2 l/m SW 0,08 h 313 W/m 17,6 km/h (3 Bft)
12.08.2017 17:00 17,2 C 78 % 1018,8 hPa 0,0 l/m W-SW 0,00 h 185 W/m 14,2 km/h (3 Bft)
12.08.2017 18:00 16,9 C 79 % 1018,9 hPa 0,0 l/m W-SW 0,00 h 96 W/m 11,0 km/h (2 Bft)
12.08.2017 19:00 16,3 C 82 % 1018,9 hPa 0,0 l/m W-SW 0,00 h 37 W/m 3,9 km/h (1 Bft)
12.08.2017 20:00 15,8 C 86 % 1019,1 hPa 0,0 l/m N 0,00 h 8 W/m 0,0 km/h (0 Bft)
12.08.2017 21:00 15,1 C 89 % 1019,3 hPa 0,0 l/m N 0,00 h 0 W/m 0,0 km/h (0 Bft)
12.08.2017 22:00 15,0 C 89 % 1019,5 hPa 0,0 l/m N 0,00 h 0 W/m 0,0 km/h (0 Bft)
12.08.2017 23:00 14,8 C 90 % 1019,3 hPa 0,0 l/m N 0,00 h 0 W/m 0,0 km/h (0 Bft)
13.08.2017 00:00 14,4 C 93 % 1019,3 hPa 0,0 l/m N 0,00 h 0 W/m 0,0 km/h (0 Bft)
13.08.2017 01:00 14,1 C 93 % 1019,1 hPa 0,0 l/m N 0,00 h 0 W/m 0,0 km/h (0 Bft)
13.08.2017 02:00 14,0 C 92 % 1018,8 hPa 0,0 l/m N 0,00 h 0 W/m 0,0 km/h (0 Bft)
13.08.2017 03:00 13,8 C 91 % 1018,8 hPa 0,0 l/m N 0,00 h 0 W/m 0,0 km/h (0 Bft)
13.08.2017 04:00 13,6 C 91 % 1018,7 hPa 0,0 l/m N 0,00 h 0 W/m 0,0 km/h (0 Bft)
13.08.2017 05:00 13,5 C 92 % 1018,8 hPa 0,0 l/m N 0,00 h 0 W/m 0,0 km/h (0 Bft)
13.08.2017 06:00 13,4 C 93 % 1018,7 hPa 0,0 l/m N 0,00 h 12 W/m 0,0 km/h (0 Bft)
13.08.2017 07:00 13,5 C 94 % 1019,0 hPa 0,0 l/m N 0,00 h 66 W/m 0,4 km/h (0 Bft)
13.08.2017 08:00 14,9 C 92 % 1019,0 hPa 0,0 l/m S-SW 0,58 h 270 W/m 2,0 km/h (1 Bft)
13.08.2017 09:00 17,2 C 80 % 1019,1 hPa 0,0 l/m W-SW 0,75 h 356 W/m 9,1 km/h (2 Bft)
13.08.2017 10:00 18,9 C 75 % 1018,9 hPa 0,0 l/m W-SW 0,92 h 577 W/m 12,2 km/h (2 Bft)
13.08.2017 11:00 20,4 C 70 % 1018,7 hPa 0,0 l/m W-SW 1,00 h 786 W/m 12,0 km/h (2 Bft)
13.08.2017 12:00 21,3 C 67 % 1018,6 hPa 0,0 l/m W-SW 0,92 h 856 W/m 10,1 km/h (2 Bft)
13.08.2017 13:00 22,1 C 64 % 1018,0 hPa 0,0 l/m SW 0,58 h 685 W/m 6,8 km/h (2 Bft)
13.08.2017 14:00 22,1 C 63 % 1017,5 hPa 0,0 l/m W 0,17 h 310 W/m 2,3 km/h (1 Bft)
13.08.2017 15:00 23,9 C 58 % 1017,2 hPa 0,0 l/m W-SW 0,92 h 758 W/m 5,6 km/h (1 Bft)
13.08.2017 16:00 24,4 C 56 % 1017,0 hPa 0,0 l/m NW 0,75 h 507 W/m 5,5 km/h (1 Bft)
13.08.2017 17:00 24,6 C 55 % 1016,8 hPa 0,0 l/m O-NO 0,75 h 437 W/m 8,5 km/h (2 Bft)
13.08.2017 18:00 23,0 C 61 % 1016,8 hPa 0,0 l/m NO 0,17 h 124 W/m 7,0 km/h (2 Bft)
13.08.2017 19:00 21,4 C 68 % 1016,9 hPa 0,0 l/m NO 0,00 h 55 W/m 6,3 km/h (2 Bft)
13.08.2017 20:00 20,1 C 75 % 1017,3 hPa 0,0 l/m NO 0,00 h 10 W/m 6,1 km/h (2 Bft)
13.08.2017 21:00 18,5 C 81 % 1017,7 hPa 0,0 l/m NO 0,00 h 0 W/m 4,4 km/h (1 Bft)
13.08.2017 22:00 16,9 C 88 % 1018,2 hPa 0,0 l/m N 0,00 h 0 W/m 0,0 km/h (0 Bft)
13.08.2017 23:00 15,8 C 92 % 1018,2 hPa 0,0 l/m N 0,00 h 0 W/m 0,0 km/h (0 Bft)
Min-Datum _ 11.08.17 07.08.17 08.08.17 - - - - 07.08.17
_ Min-Zeit 00:05 16:35 09:50 - - - - 00:00
Minimum _ 10,0 C 52 % 1007,4 hPa - - - - 0,0 km/h (0 Bft)
Max-Datum _ 07.08.17 07.08.17 07.08.17 09.08.17 - 07.08.17 09.08.17 08.08.17
_ Max-Zeit 16:40 01:00 00:10 23:25 - 06:20 12:30 14:05
Maximum _ 25,1 C 100 % 1019,9 hPa 14,8 l/m - 0,08 h 1157 W/m 29,0 km/h
W-SW (5 Bft)
Durchschnitt _ 15,5 C 88 % 1015,4 hPa #39,0 l/m W-SW #30:00 h 241 W/m 6,6 km/h (2 Bft)